Time;durP1;ratioP1;P1;durP2;ratioP2;P2;SDS_P1;SDS_P2;PMS_P1;PMS_P2;Temp;Humidity;BMP_temperature;BMP_pressure;BME280_temperature;BME280_humidity;BME280_pressure;Samples;Min_cycle;Max_cycle;Signal;HPM_P1;HPM_P2
2023/06/12 00:00:05;;;;;;;2.43;2.33;;;21.60;56.00;20.80;96391.00;;;;6102640;23;20662;-80
2023/06/12 00:02:32;;;;;;;2.67;2.47;;;21.50;56.00;20.80;96388.00;;;;6128511;23;20851;-80
2023/06/12 00:05:00;;;;;;;3.00;2.80;;;21.50;56.10;20.80;96383.00;;;;6101762;23;20686;-79
2023/06/12 00:07:28;;;;;;;2.70;2.50;;;21.50;56.20;20.80;96379.00;;;;6127782;23;20225;-80
2023/06/12 00:09:56;;;;;;;2.70;2.50;;;21.40;56.30;20.70;96374.00;;;;6101321;23;20171;-80
2023/06/12 00:12:24;;;;;;;2.33;2.17;;;21.40;56.40;20.70;96377.00;;;;6077610;23;20171;-80
2023/06/12 00:14:52;;;;;;;2.33;2.23;;;21.40;56.50;20.70;96370.00;;;;6126233;23;20190;-80
2023/06/12 00:17:19;;;;;;;2.50;2.30;;;21.40;56.60;20.60;96374.00;;;;6126112;23;20252;-79
2023/06/12 00:19:48;;;;;;;2.43;2.23;;;21.30;56.60;20.60;96368.00;;;;6127162;23;20198;-78
2023/06/12 00:22:16;;;;;;;2.30;2.20;;;21.30;56.70;20.60;96370.00;;;;6127478;23;20209;-80
2023/06/12 00:24:43;;;;;;;2.43;2.23;;;21.30;56.70;20.60;96369.00;;;;6127376;23;20194;-79
2023/06/12 00:27:11;;;;;;;2.67;2.47;;;21.20;56.80;20.50;96362.00;;;;6127324;23;20254;-80
2023/06/12 00:29:38;;;;;;;2.73;2.40;;;21.20;56.90;20.50;96367.00;;;;6128436;23;20175;-80
2023/06/12 00:32:08;;;;;;;2.80;2.60;;;21.20;57.00;20.50;96365.00;;;;6079587;23;20197;-80
2023/06/12 00:34:37;;;;;;;2.83;2.63;;;21.20;57.20;20.50;96372.00;;;;6128224;23;20266;-79
2023/06/12 00:37:07;;;;;;;2.70;2.50;;;21.10;57.20;20.50;96368.00;;;;6128176;23;20179;-79
2023/06/12 00:39:34;;;;;;;2.80;2.60;;;21.10;57.20;20.40;96361.00;;;;6128102;23;20179;-80
2023/06/12 00:42:01;;;;;;;2.67;2.47;;;21.10;57.30;20.40;96366.00;;;;6129555;23;20198;-79
2023/06/12 00:44:29;;;;;;;2.60;2.40;;;21.10;57.40;20.40;96368.00;;;;6130209;23;20584;-79
2023/06/12 00:46:56;;;;;;;2.83;2.63;;;21.10;57.50;20.40;96359.00;;;;6135354;23;20272;-81
2023/06/12 00:49:26;;;;;;;2.80;2.60;;;21.00;57.50;20.30;96362.00;;;;6136822;23;20224;-80
2023/06/12 00:51:55;;;;;;;2.40;2.30;;;21.00;57.60;20.30;96360.00;;;;6086266;23;20185;-80
2023/06/12 00:54:22;;;;;;;2.77;2.57;;;21.00;57.70;20.30;96358.00;;;;6129722;23;20198;-80
2023/06/12 00:56:50;;;;;;;3.23;3.00;;;21.00;57.70;20.30;96358.00;;;;6126703;23;20204;-81
2023/06/12 00:59:18;;;;;;;2.57;2.37;;;21.00;57.80;20.30;96353.00;;;;6126683;23;20167;-80
2023/06/12 01:01:45;;;;;;;2.97;2.77;;;20.90;58.50;20.30;96353.00;;;;6100127;23;20529;-81
2023/06/12 01:04:13;;;;;;;2.90;2.70;;;20.90;57.90;20.20;96356.00;;;;6101652;23;20591;-81
2023/06/12 01:06:51;;;;;;;2.83;2.63;;;20.90;58.00;20.20;96351.00;;;;6100219;23;20167;-80
2023/06/12 01:09:33;;;;;;;3.13;2.70;;;20.90;58.30;20.20;96349.00;;;;6125677;23;20206;-79
2023/06/12 01:12:02;;;;;;;2.60;2.50;;;20.90;58.30;20.20;96352.00;;;;6101788;23;20523;-80
2023/06/12 01:14:30;;;;;;;2.40;2.30;;;20.90;58.30;20.20;96347.00;;;;6126110;23;20246;-81
2023/06/12 01:16:58;;;;;;;2.97;2.67;;;20.90;58.30;20.20;96349.00;;;;6125244;23;20520;-79
2023/06/12 01:19:26;;;;;;;3.03;2.77;;;20.90;58.30;20.20;96351.00;;;;6126576;23;20171;-80
2023/06/12 01:22:02;;;;;;;2.90;2.70;;;20.80;58.40;20.20;96350.00;;;;6126979;23;20230;-80
2023/06/12 01:25:04;;;;;;;2.57;2.47;;;20.80;58.50;20.20;96340.00;;;;6102402;23;20281;-81
2023/06/12 01:28:01;;;;;;;3.00;2.80;;;20.80;58.80;20.10;96340.00;;;;6126702;23;20264;-81
2023/06/12 01:30:54;;;;;;;2.50;2.30;;;20.80;58.90;20.10;96348.00;;;;6100770;23;20638;-81
2023/06/12 01:33:33;;;;;;;2.70;2.60;;;20.80;58.80;20.10;96340.00;;;;6126394;23;20194;-80
2023/06/12 01:36:03;;;;;;;3.30;3.10;;;20.80;58.70;20.10;96342.00;;;;6126825;23;20523;-81
2023/06/12 01:38:35;;;;;;;2.80;2.57;;;20.80;58.60;20.10;96346.00;;;;6127292;23;20174;-81
2023/06/12 01:41:06;;;;;;;3.17;2.87;;;20.80;58.70;20.10;96339.00;;;;6126597;23;20736;-81
2023/06/12 01:43:34;;;;;;;2.73;2.53;;;20.80;58.80;20.10;96342.00;;;;6127674;23;20223;-81
2023/06/12 01:46:03;;;;;;;3.10;2.90;;;20.80;58.80;20.10;96331.00;;;;6101287;23;20183;-81
2023/06/12 01:48:32;;;;;;;3.53;3.23;;;20.80;58.90;20.10;96325.00;;;;6101418;23;20182;-80
2023/06/12 01:50:59;;;;;;;3.13;2.93;;;20.80;59.00;20.00;96331.00;;;;6127160;23;20686;-80
2023/06/12 01:53:29;;;;;;;3.37;3.03;;;20.70;58.90;20.00;96334.00;;;;6127733;23;20272;-81
2023/06/12 01:55:56;;;;;;;3.00;2.83;;;20.70;58.90;20.00;96329.00;;;;6101320;23;20174;-81
2023/06/12 01:58:24;;;;;;;3.10;2.90;;;20.70;59.10;20.00;96334.00;;;;6127351;23;20261;-81
2023/06/12 02:00:53;;;;;;;2.93;2.73;;;20.70;59.20;20.00;96330.00;;;;6127194;23;20297;-80
2023/06/12 02:03:28;;;;;;;4.83;3.03;;;20.70;59.20;20.00;96325.00;;;;6126787;23;20186;-80
2023/06/12 02:05:57;;;;;;;3.30;3.10;;;20.70;59.30;20.00;96323.00;;;;6126618;23;20217;-79
2023/06/12 02:08:24;;;;;;;3.40;3.20;;;20.60;59.30;20.00;96328.00;;;;6099579;23;20255;-80
2023/06/12 02:10:52;;;;;;;3.23;3.03;;;20.60;59.40;20.00;96324.00;;;;6125808;23;20216;-79
2023/06/12 02:13:22;;;;;;;3.07;2.87;;;20.60;59.40;20.00;96330.00;;;;6125437;23;20221;-80
2023/06/12 02:15:49;;;;;;;3.27;3.07;;;20.60;59.40;19.90;96321.00;;;;6076964;23;20170;-81
2023/06/12 02:18:16;;;;;;;3.33;3.13;;;20.60;59.50;19.90;96328.00;;;;6125650;23;20290;-80
2023/06/12 02:20:44;;;;;;;3.60;3.40;;;20.60;59.60;20.00;96329.00;;;;6126656;23;20188;-80
2023/06/12 02:23:14;;;;;;;3.57;3.37;;;20.60;59.50;19.90;96326.00;;;;6126992;23;20689;-81
2023/06/12 02:25:41;;;;;;;3.43;3.23;;;20.60;59.60;19.90;96332.00;;;;6127072;23;20724;-79
2023/06/12 02:28:11;;;;;;;3.17;2.87;;;20.60;59.70;19.90;96329.00;;;;6125810;23;20169;-80
2023/06/12 02:30:39;;;;;;;3.50;3.20;;;20.60;59.80;19.90;96337.00;;;;6125681;23;20171;-80
2023/06/12 02:33:09;;;;;;;3.67;3.37;;;20.60;59.70;19.90;96334.00;;;;6076117;23;20177;-80
2023/06/12 02:35:37;;;;;;;3.33;3.13;;;20.60;59.80;19.90;96330.00;;;;6100558;23;20206;-82
2023/06/12 02:38:04;;;;;;;3.20;3.00;;;20.60;59.80;19.90;96330.00;;;;6125912;23;20230;-80
2023/06/12 02:40:34;;;;;;;3.33;3.13;;;20.60;59.90;19.90;96328.00;;;;6125607;23;20183;-81
2023/06/12 02:43:02;;;;;;;3.43;3.23;;;20.60;60.10;19.80;96329.00;;;;6100868;23;20248;-81
2023/06/12 02:45:29;;;;;;;3.30;3.10;;;20.60;60.10;19.80;96329.00;;;;6101781;23;20206;-80
2023/06/12 02:47:57;;;;;;;3.43;3.23;;;20.60;60.10;19.80;96327.00;;;;6127131;23;20539;-80
2023/06/12 02:50:24;;;;;;;3.53;3.33;;;20.50;60.10;19.80;96329.00;;;;6078139;23;20212;-80
2023/06/12 02:52:52;;;;;;;3.43;3.23;;;20.50;60.20;19.70;96326.00;;;;6126686;23;20195;-80
2023/06/12 02:55:19;;;;;;;3.50;3.30;;;20.50;60.40;19.70;96328.00;;;;6101893;23;20195;-81
2023/06/12 02:57:48;;;;;;;3.10;2.90;;;20.40;60.30;19.70;96325.00;;;;6126225;23;20647;-80
2023/06/12 03:00:16;;;;;;;3.80;3.40;;;20.40;60.50;19.70;96327.00;;;;6101249;23;20217;-80
2023/06/12 03:02:47;;;;;;;4.27;3.97;;;20.40;60.60;19.70;96336.00;;;;6077005;23;20258;-80
2023/06/12 03:05:15;;;;;;;3.53;3.23;;;20.40;60.70;19.60;96339.00;;;;6125985;23;20206;-79
2023/06/12 03:07:44;;;;;;;3.73;3.53;;;20.40;60.80;19.60;96339.00;;;;6125807;23;20172;-79
2023/06/12 03:10:12;;;;;;;3.87;3.50;;;20.40;60.90;19.60;96334.00;;;;6126253;23;20198;-81
2023/06/12 03:12:39;;;;;;;3.83;3.60;;;20.40;61.00;19.60;96336.00;;;;6101545;23;20229;-80
2023/06/12 03:15:14;;;;;;;4.33;4.00;;;20.30;61.00;19.60;96343.00;;;;6128541;23;20266;-80
2023/06/12 03:17:42;;;;;;;4.17;3.77;;;20.30;61.20;19.60;96339.00;;;;6130266;23;20173;-80
2023/06/12 03:20:14;;;;;;;3.90;3.60;;;20.30;61.10;19.60;96337.00;;;;6105112;23;20175;-80
2023/06/12 03:22:41;;;;;;;3.73;3.53;;;20.30;61.40;19.50;96348.00;;;;6100591;23;20190;-81
2023/06/12 03:25:11;;;;;;;3.90;3.40;;;20.30;61.30;19.50;96340.00;;;;6125924;23;20262;-80
2023/06/12 03:27:40;;;;;;;4.07;3.77;;;20.30;61.40;19.50;96335.00;;;;6099960;23;20185;-81
2023/06/12 03:30:11;;;;;;;3.47;3.17;;;20.30;61.40;19.50;96335.00;;;;6125674;23;20841;-80
2023/06/12 03:32:38;;;;;;;3.83;3.53;;;20.30;61.70;19.50;96333.00;;;;6125711;23;20206;-80
2023/06/12 03:35:07;;;;;;;4.10;3.80;;;20.20;61.50;19.50;96335.00;;;;6100238;23;20273;-80
2023/06/12 03:37:34;;;;;;;3.90;3.70;;;20.20;61.60;19.40;96337.00;;;;6125570;23;20575;-80
2023/06/12 03:40:01;;;;;;;3.60;3.30;;;20.20;61.70;19.40;96348.00;;;;6099689;23;20171;-81
2023/06/12 03:42:30;;;;;;;3.80;3.50;;;20.20;61.80;19.40;96349.00;;;;6099719;23;20199;-82
2023/06/12 03:44:57;;;;;;;4.00;3.70;;;20.20;61.90;19.40;96354.00;;;;6076804;23;20192;-80
2023/06/12 03:47:27;;;;;;;4.30;4.00;;;20.20;62.00;19.40;96357.00;;;;6125375;23;20711;-81
2023/06/12 03:49:55;;;;;;;4.10;3.80;;;20.20;62.40;19.40;96366.00;;;;6125404;23;20253;-81
2023/06/12 03:52:23;;;;;;;4.13;3.83;;;20.10;62.20;19.40;96362.00;;;;6099875;23;20193;-80
2023/06/12 03:54:50;;;;;;;4.10;3.80;;;20.10;62.30;19.40;96368.00;;;;6125619;23;20587;-81
2023/06/12 03:57:20;;;;;;;4.20;3.90;;;20.10;62.50;19.40;96368.00;;;;6124767;23;20170;-81
2023/06/12 03:59:48;;;;;;;4.33;4.03;;;20.10;62.60;19.40;96369.00;;;;6125758;23;20729;-81
2023/06/12 04:02:16;;;;;;;4.30;3.90;;;20.10;62.70;19.40;96367.00;;;;6098106;23;20794;-80
2023/06/12 04:04:45;;;;;;;4.73;4.40;;;20.10;62.80;19.40;96370.00;;;;6124906;23;20562;-80
2023/06/12 04:07:13;;;;;;;4.70;4.40;;;20.10;63.00;19.40;96371.00;;;;6124031;23;20275;-80
2023/06/12 04:09:40;;;;;;;4.60;4.20;;;20.10;63.10;19.30;96371.00;;;;6125579;23;20185;-80
2023/06/12 04:12:09;;;;;;;4.87;4.33;;;20.10;63.30;19.30;96365.00;;;;6125169;23;20183;-80
2023/06/12 04:14:37;;;;;;;4.53;4.23;;;20.10;63.50;19.40;96371.00;;;;6126555;23;20268;-81
2023/06/12 04:17:05;;;;;;;4.57;4.20;;;20.10;63.50;19.30;96374.00;;;;6128633;23;20398;-82
2023/06/12 04:19:32;;;;;;;4.80;4.40;;;20.10;63.60;19.30;96372.00;;;;6130461;23;20672;-78
2023/06/12 04:22:02;;;;;;;4.50;4.20;;;20.10;63.80;19.40;96369.00;;;;6124357;23;20592;-79
2023/06/12 04:24:32;;;;;;;4.57;4.27;;;20.10;64.00;19.40;96367.00;;;;6074689;23;20703;-79
2023/06/12 04:27:01;;;;;;;4.70;4.30;;;20.10;64.00;19.40;96365.00;;;;6099887;23;20175;-79
2023/06/12 04:29:31;;;;;;;4.63;4.33;;;20.10;64.10;19.40;96366.00;;;;6124999;23;20210;-79
2023/06/12 04:31:59;;;;;;;4.40;4.10;;;20.10;64.10;19.40;96368.00;;;;6099221;23;20515;-79
2023/06/12 04:34:28;;;;;;;4.67;4.30;;;20.10;64.20;19.40;96372.00;;;;6124678;23;20551;-79
2023/06/12 04:36:55;;;;;;;4.80;4.40;;;20.10;64.20;19.40;96365.00;;;;6100293;23;20178;-79
2023/06/12 04:39:29;;;;;;;4.93;4.60;;;20.10;64.30;19.40;96366.00;;;;6100393;23;20743;-81
2023/06/12 04:41:56;;;;;;;4.90;4.50;;;20.20;64.60;19.50;96359.00;;;;6103905;23;20210;-81
2023/06/12 04:44:31;;;;;;;4.90;4.57;;;20.20;64.50;19.50;96363.00;;;;6127989;23;20277;-79
2023/06/12 04:47:00;;;;;;;4.83;4.43;;;20.20;64.60;19.50;96363.00;;;;6128001;23;20160;-81
2023/06/12 04:49:27;;;;;;;4.43;4.13;;;20.20;64.60;19.50;96360.00;;;;6127541;23;20635;-82
2023/06/12 04:51:56;;;;;;;4.80;4.40;;;20.20;64.60;19.50;96362.00;;;;6126768;23;20177;-82
2023/06/12 04:54:25;;;;;;;4.47;4.13;;;20.20;64.70;19.50;96351.00;;;;6126298;23;20195;-80
2023/06/12 04:56:54;;;;;;;4.67;4.30;;;20.20;64.90;19.60;96356.00;;;;6126299;23;20553;-80
2023/06/12 04:59:21;;;;;;;5.00;4.50;;;20.20;64.80;19.60;96347.00;;;;6126859;23;20174;-82
2023/06/12 05:01:49;;;;;;;4.50;4.20;;;20.20;64.80;19.60;96350.00;;;;6101701;23;20179;-80
2023/06/12 05:04:16;;;;;;;5.10;4.50;;;20.30;64.90;19.60;96356.00;;;;6101452;23;20200;-81
2023/06/12 05:06:43;;;;;;;5.03;4.47;;;20.30;64.90;19.60;96355.00;;;;6127591;23;20253;-80
2023/06/12 05:09:12;;;;;;;4.30;4.00;;;20.30;65.00;19.60;96362.00;;;;6127630;23;20180;-82
2023/06/12 05:11:41;;;;;;;4.93;4.43;;;20.30;65.00;19.70;96363.00;;;;6128252;23;20174;-79
2023/06/12 05:14:08;;;;;;;4.73;4.23;;;20.30;65.20;19.70;96360.00;;;;6127432;23;20327;-81
2023/06/12 05:16:36;;;;;;;4.50;4.20;;;20.30;64.90;19.70;96357.00;;;;6127610;23;20247;-82
2023/06/12 05:19:03;;;;;;;4.57;4.27;;;20.40;65.10;19.70;96365.00;;;;6101746;23;20194;-82
2023/06/12 05:21:31;;;;;;;4.50;4.20;;;20.40;65.10;19.70;96364.00;;;;6101489;23;20178;-82
2023/06/12 05:23:59;;;;;;;4.80;4.27;;;20.40;65.20;19.70;96373.00;;;;6126939;23;20203;-82
2023/06/12 05:26:27;;;;;;;5.20;4.70;;;20.40;65.10;19.80;96373.00;;;;6102621;23;20185;-81
2023/06/12 05:28:55;;;;;;;4.90;4.50;;;20.40;65.00;19.80;96371.00;;;;6127609;23;20271;-81
2023/06/12 05:31:23;;;;;;;4.53;4.23;;;20.40;65.20;19.80;96377.00;;;;6127427;23;20218;-80
2023/06/12 05:33:50;;;;;;;4.27;3.97;;;20.40;65.10;19.90;96378.00;;;;6129616;23;20275;-80
2023/06/12 05:36:18;;;;;;;4.40;4.10;;;20.50;65.30;19.90;96377.00;;;;6129088;23;20667;-81
2023/06/12 05:38:46;;;;;;;4.40;4.00;;;20.50;65.20;19.90;96379.00;;;;6131166;23;20186;-81
2023/06/12 05:41:14;;;;;;;4.53;4.13;;;20.50;65.20;20.00;96381.00;;;;6135288;23;20174;-80
2023/06/12 05:43:44;;;;;;;4.20;3.80;;;20.60;65.20;20.00;96389.00;;;;6139015;23;20222;-82
2023/06/12 05:46:14;;;;;;;3.83;3.53;;;20.60;65.10;20.00;96391.00;;;;6137373;23;20232;-82
2023/06/12 05:48:41;;;;;;;4.40;4.03;;;20.60;65.00;20.10;96381.00;;;;6136474;23;20176;-82
2023/06/12 05:51:09;;;;;;;4.20;3.90;;;20.70;64.60;20.10;96380.00;;;;6127505;23;20200;-82
2023/06/12 05:53:37;;;;;;;3.77;3.47;;;20.70;64.40;20.10;96389.00;;;;6102374;23;20258;-82
2023/06/12 05:56:05;;;;;;;4.33;4.03;;;20.70;64.50;20.20;96382.00;;;;6127178;23;20204;-81
2023/06/12 05:58:33;;;;;;;4.33;3.87;;;20.70;64.30;20.20;96391.00;;;;6102656;23;20379;-82
2023/06/12 06:01:03;;;;;;;3.93;3.57;;;20.80;64.10;20.30;96384.00;;;;6126673;23;20642;-82
2023/06/12 06:03:33;;;;;;;4.20;3.90;;;20.80;64.00;20.30;96385.00;;;;6101271;23;20202;-81
2023/06/12 06:06:02;;;;;;;3.63;3.33;;;20.80;63.90;20.30;96390.00;;;;6102124;23;20175;-82
2023/06/12 06:08:30;;;;;;;3.83;3.53;;;20.90;63.80;20.40;96394.00;;;;6127836;23;20263;-82
2023/06/12 06:10:57;;;;;;;4.70;3.80;;;20.90;63.60;20.40;96397.00;;;;6127739;23;20560;-80
2023/06/12 06:13:25;;;;;;;4.00;3.70;;;21.00;63.70;20.50;96398.00;;;;6128086;23;20205;-82
2023/06/12 06:15:52;;;;;;;4.10;3.10;;;21.00;64.20;20.50;96402.00;;;;6127375;23;20248;-82
2023/06/12 06:18:20;;;;;;;4.10;3.80;;;21.10;63.50;20.60;96404.00;;;;6127201;23;20171;-81
2023/06/12 06:20:49;;;;;;;3.67;3.33;;;21.10;63.40;20.60;96397.00;;;;6100741;23;20649;-82
2023/06/12 06:23:16;;;;;;;3.50;3.30;;;21.10;63.30;20.70;96411.00;;;;6127591;23;20206;-82
2023/06/12 06:25:44;;;;;;;3.53;3.30;;;21.20;62.90;20.70;96410.00;;;;6101325;23;20176;-80
2023/06/12 06:28:11;;;;;;;3.77;3.30;;;21.20;62.80;20.80;96414.00;;;;6127220;23;20199;-81
2023/06/12 06:30:38;;;;;;;5.30;3.60;;;21.30;62.80;20.80;96416.00;;;;6101111;23;20175;-82
2023/06/12 06:33:06;;;;;;;3.47;3.17;;;21.30;62.70;20.90;96410.00;;;;6127176;23;20178;-81
2023/06/12 06:35:33;;;;;;;3.37;3.17;;;21.40;62.50;20.90;96410.00;;;;6127459;23;20586;-81
2023/06/12 06:38:03;;;;;;;3.80;3.50;;;21.40;62.60;21.00;96413.00;;;;6101340;23;20181;-82
2023/06/12 06:40:30;;;;;;;3.53;3.33;;;21.50;62.70;21.10;96415.00;;;;6100971;23;20170;-81
2023/06/12 06:42:58;;;;;;;3.80;3.20;;;21.60;62.30;21.10;96414.00;;;;6102075;23;20565;-82
2023/06/12 06:45:25;;;;;;;3.43;3.13;;;21.60;61.90;21.20;96409.00;;;;6100894;23;20210;-81
2023/06/12 06:47:54;;;;;;;3.33;3.13;;;21.70;61.70;21.30;96405.00;;;;6101978;23;20246;-81
2023/06/12 06:50:22;;;;;;;3.67;3.37;;;21.70;61.50;21.30;96408.00;;;;6128115;23;20253;-81
2023/06/12 06:52:50;;;;;;;3.00;2.80;;;21.80;61.40;21.40;96407.00;;;;6127506;23;20170;-80
2023/06/12 06:55:19;;;;;;;3.50;3.20;;;21.90;61.20;21.50;96410.00;;;;6102029;23;20198;-81
2023/06/12 06:57:50;;;;;;;3.30;3.03;;;21.90;61.20;21.60;96410.00;;;;6102104;23;20198;-81
2023/06/12 07:00:21;;;;;;;9.17;3.27;;;22.00;61.20;21.70;96413.00;;;;6128532;23;20159;-81
2023/06/12 07:02:49;;;;;;;3.60;3.30;;;22.10;60.70;21.90;96408.00;;;;6078249;23;20203;-81
2023/06/12 07:05:16;;;;;;;2.83;2.63;;;22.20;61.00;22.00;96412.00;;;;6127264;23;20191;-81
2023/06/12 07:07:47;;;;;;;3.03;2.73;;;22.30;60.80;22.10;96415.00;;;;6126912;23;20372;-80
2023/06/12 07:10:15;;;;;;;2.93;2.73;;;22.40;60.60;22.30;96410.00;;;;6127770;23;20182;-79
2023/06/12 07:12:44;;;;;;;3.80;2.80;;;22.60;60.40;22.40;96410.00;;;;6127491;23;20257;-81
2023/06/12 07:15:12;;;;;;;3.17;2.97;;;22.70;59.90;22.60;96415.00;;;;6126679;23;20279;-80
2023/06/12 07:17:40;;;;;;;3.10;2.90;;;22.90;59.70;22.70;96412.00;;;;6128064;23;20182;-81
2023/06/12 07:20:09;;;;;;;3.40;3.10;;;23.00;59.50;22.90;96421.00;;;;6126751;23;20227;-81
2023/06/12 07:22:36;;;;;;;3.23;2.83;;;23.20;59.40;23.00;96413.00;;;;6125968;23;20255;-82
2023/06/12 07:25:04;;;;;;;2.80;2.60;;;23.30;59.20;23.10;96412.00;;;;6127446;23;20532;-82
2023/06/12 07:27:31;;;;;;;3.03;2.77;;;23.40;58.80;23.20;96406.00;;;;6133513;23;20198;-82
2023/06/12 07:30:01;;;;;;;3.57;3.00;;;23.50;58.70;23.40;96413.00;;;;6132105;23;20196;-82
2023/06/12 07:32:30;;;;;;;3.10;2.90;;;23.70;58.70;23.50;96411.00;;;;6111150;23;20488;-81
2023/06/12 07:34:58;;;;;;;3.40;2.90;;;23.80;58.30;23.60;96417.00;;;;6138001;23;20193;-81
2023/06/12 07:37:25;;;;;;;2.93;2.73;;;23.90;58.00;23.70;96411.00;;;;6137100;23;20178;-81
2023/06/12 07:39:53;;;;;;;3.27;2.97;;;24.10;57.60;23.90;96423.00;;;;6111223;23;20177;-80
2023/06/12 07:42:20;;;;;;;2.97;2.77;;;24.20;57.50;24.00;96421.00;;;;6134583;23;20178;-82
2023/06/12 07:44:47;;;;;;;2.60;2.40;;;24.30;56.80;24.20;96423.00;;;;6106479;23;20270;-81
2023/06/12 07:47:16;;;;;;;3.33;3.03;;;24.40;56.40;24.30;96419.00;;;;6132543;23;20185;-79
2023/06/12 07:49:43;;;;;;;3.47;2.57;;;24.60;56.20;24.50;96422.00;;;;6134869;23;20530;-80
2023/06/12 07:52:12;;;;;;;3.87;2.57;;;24.70;56.30;24.60;96424.00;;;;6132441;23;20187;-80
2023/06/12 07:54:39;;;;;;;3.00;2.70;;;24.90;56.10;24.80;96421.00;;;;6107440;23;20221;-81
2023/06/12 07:57:08;;;;;;;4.37;2.93;;;25.00;55.80;24.90;96418.00;;;;6133576;23;20202;-80
2023/06/12 07:59:35;;;;;;;2.47;2.27;;;25.20;55.50;25.00;96417.00;;;;6135126;23;20171;-80
2023/06/12 08:02:04;;;;;;;2.33;2.23;;;25.20;55.30;25.10;96423.00;;;;6107198;23;20170;-80
2023/06/12 08:04:33;;;;;;;2.50;2.30;;;25.40;55.30;25.20;96419.00;;;;6136571;23;20222;-79
2023/06/12 08:07:01;;;;;;;2.83;2.63;;;25.50;54.90;25.40;96416.00;;;;6139874;23;20210;-81
2023/06/12 08:09:29;;;;;;;2.97;2.47;;;25.60;54.70;25.50;96410.00;;;;6148798;23;20181;-81
2023/06/12 08:11:56;;;;;;;2.90;2.70;;;25.80;54.50;25.60;96413.00;;;;6100575;23;20227;-80
2023/06/12 08:14:24;;;;;;;2.90;2.70;;;25.90;54.30;25.70;96416.00;;;;6116893;23;20194;-81
2023/06/12 08:16:52;;;;;;;3.33;2.97;;;26.00;54.10;25.90;96411.00;;;;6112195;23;20661;-81
2023/06/12 08:19:20;;;;;;;2.83;2.63;;;26.10;54.00;26.00;96410.00;;;;6132757;23;20177;-81
2023/06/12 08:21:51;;;;;;;2.30;2.20;;;26.30;53.90;26.10;96413.00;;;;6130391;23;20249;-81
2023/06/12 08:24:19;;;;;;;2.73;2.53;;;26.30;53.10;26.20;96416.00;;;;6104746;23;20203;-82
2023/06/12 08:26:47;;;;;;;2.63;2.43;;;26.50;53.40;26.40;96411.00;;;;6106460;23;20197;-79
2023/06/12 08:29:14;;;;;;;2.40;2.30;;;26.60;53.00;26.50;96420.00;;;;6129895;23;20175;-80
2023/06/12 08:31:41;;;;;;;3.17;2.17;;;26.70;52.80;26.60;96414.00;;;;6129899;23;20638;-80
2023/06/12 08:34:09;;;;;;;2.67;2.47;;;26.80;53.10;26.70;96420.00;;;;6104957;23;20205;-81
2023/06/12 08:36:36;;;;;;;2.63;2.13;;;27.00;52.00;26.80;96426.00;;;;6129051;23;20258;-81
2023/06/12 08:39:05;;;;;;;2.53;2.40;;;27.10;51.50;27.00;96422.00;;;;6129069;23;20171;-81
2023/06/12 08:41:38;;;;;;;2.28;2.10;;;27.20;51.40;27.10;96417.00;;;;6104484;23;20174;-81
2023/06/12 08:44:08;;;;;;;3.87;2.43;;;27.30;51.10;27.20;96412.00;;;;6104478;23;20205;-80
2023/06/12 08:46:36;;;;;;;2.65;2.45;;;27.40;50.90;27.30;96424.00;;;;6129351;23;20175;-81
2023/06/12 08:49:04;;;;;;;2.35;2.00;;;27.50;50.30;27.40;96425.00;;;;6130967;23;20171;-80
2023/06/12 08:51:33;;;;;;;2.20;2.10;;;27.60;50.20;27.50;96430.00;;;;6104384;23;20181;-80
2023/06/12 08:54:02;;;;;;;2.08;1.98;;;27.80;49.70;27.70;96426.00;;;;6103558;23;20265;-80
2023/06/12 08:56:33;;;;;;;2.28;2.08;;;27.90;49.20;27.80;96429.00;;;;6131941;23;20205;-81
2023/06/12 08:59:03;;;;;;;2.75;2.47;;;28.00;48.70;27.90;96423.00;;;;6103414;23;20171;-81
2023/06/12 09:01:34;;;;;;;2.33;2.20;;;28.10;48.70;27.90;96420.00;;;;6128069;23;20190;-80
2023/06/12 09:04:10;;;;;;;2.22;2.03;;;28.20;48.30;28.00;96427.00;;;;6104478;23;20202;-80
2023/06/12 09:06:39;;;;;;;2.55;2.10;;;28.30;47.60;28.10;96423.00;;;;6127665;23;20753;-80
2023/06/12 09:09:06;;;;;;;2.33;2.05;;;28.40;47.00;28.20;96429.00;;;;6128859;23;20254;-80
2023/06/12 09:11:38;;;;;;;2.10;1.92;;;28.50;47.00;28.30;96423.00;;;;6128570;23;20175;-80
2023/06/12 09:14:06;;;;;;;2.50;1.75;;;28.50;46.80;28.40;96424.00;;;;6103270;23;20210;-80
2023/06/12 09:16:34;;;;;;;2.00;1.85;;;28.60;46.80;28.50;96432.00;;;;6129823;23;20175;-80
2023/06/12 09:19:01;;;;;;;2.28;2.08;;;28.70;46.80;28.60;96422.00;;;;6129459;23;20226;-80
2023/06/12 09:21:29;;;;;;;2.10;1.85;;;28.80;46.60;28.80;96431.00;;;;6128770;23;20175;-82
2023/06/12 09:23:57;;;;;;;2.13;2.03;;;29.00;46.20;28.90;96435.00;;;;6104007;23;20533;-80
2023/06/12 09:26:25;;;;;;;2.72;1.88;;;29.10;46.00;29.10;96424.00;;;;6130777;23;20694;-81
2023/06/12 09:28:54;;;;;;;2.15;2.00;;;29.30;45.80;29.20;96422.00;;;;6101971;23;20186;-79
2023/06/12 09:31:23;;;;;;;2.10;1.90;;;29.50;45.00;29.40;96423.00;;;;6129123;23;20171;-80
2023/06/12 09:33:53;;;;;;;2.20;2.00;;;29.70;45.10;29.60;96424.00;;;;6101120;23;20221;-80
2023/06/12 09:36:28;;;;;;;1.92;1.67;;;29.90;44.50;29.80;96428.00;;;;6078511;23;20202;-80
2023/06/12 09:38:55;;;;;;;1.73;1.63;;;30.10;44.60;30.00;96428.00;;;;6127266;23;20575;-80
2023/06/12 09:41:24;;;;;;;3.45;3.15;;;30.30;44.20;30.20;96427.00;;;;6127234;23;20379;-79
2023/06/12 09:44:03;;;;;;;3.42;3.22;;;30.60;44.00;30.50;96424.00;;;;6126854;23;20198;-80
2023/06/12 09:46:33;;;;;;;2.20;2.10;;;30.80;43.60;30.70;96433.00;;;;6128202;23;20835;-81
2023/06/12 09:49:06;;;;;;;2.53;1.90;;;31.10;43.30;30.90;96431.00;;;;6130161;23;20170;-80
2023/06/12 09:51:35;;;;;;;2.03;1.92;;;31.40;43.00;31.10;96424.00;;;;6131318;23;20186;-79
2023/06/12 09:54:06;;;;;;;1.73;1.63;;;31.70;42.70;31.40;96434.00;;;;6131396;23;20299;-81
2023/06/12 09:56:35;;;;;;;1.98;1.83;;;32.00;42.10;31.60;96421.00;;;;6130288;23;20497;-84
2023/06/12 09:59:09;;;;;;;1.73;1.63;;;32.30;41.90;31.80;96427.00;;;;6107160;23;20205;-81
2023/06/12 10:01:42;;;;;;;1.80;1.67;;;32.60;41.20;32.00;96432.00;;;;6104938;23;20171;-80
2023/06/12 10:04:13;;;;;;;3.33;1.75;;;32.80;41.10;32.20;96427.00;;;;6105941;23;20233;-80
2023/06/12 10:06:43;;;;;;;1.85;1.63;;;33.10;40.60;32.40;96427.00;;;;6132948;23;20182;-79
2023/06/12 10:09:12;;;;;;;2.05;1.88;;;33.30;40.40;32.50;96417.00;;;;6134965;23;20209;-80
2023/06/12 10:11:41;;;;;;;1.60;1.50;;;33.50;40.50;32.70;96430.00;;;;6129967;23;20230;-81
2023/06/12 10:14:10;;;;;;;1.73;1.63;;;33.70;39.60;32.90;96420.00;;;;6108257;23;20229;-81
2023/06/12 10:16:42;;;;;;;2.00;1.75;;;33.90;39.10;33.00;96419.00;;;;6135183;23;20193;-79
2023/06/12 10:19:13;;;;;;;2.25;1.73;;;34.00;38.10;33.10;96428.00;;;;6144463;23;20159;-79
2023/06/12 10:21:41;;;;;;;1.98;1.60;;;34.20;38.10;33.30;96419.00;;;;6089332;23;20187;-81
2023/06/12 10:24:10;;;;;;;1.58;1.48;;;34.30;38.10;33.40;96421.00;;;;6148701;23;20210;-82
2023/06/12 10:26:39;;;;;;;1.88;1.77;;;34.40;38.00;33.50;96420.00;;;;6124678;23;20218;-81
2023/06/12 10:29:30;;;;;;;2.78;2.10;;;34.50;37.80;33.60;96417.00;;;;6145801;23;20185;-80
2023/06/12 10:32:06;;;;;;;2.22;2.00;;;34.50;36.50;33.60;96407.00;;;;6145208;23;20160;-81
2023/06/12 10:34:34;;;;;;;1.80;1.70;;;34.60;36.80;33.70;96417.00;;;;6143642;23;20190;-82
2023/06/12 10:37:27;;;;;;;2.13;1.75;;;34.60;37.10;33.70;96415.00;;;;6119614;23;20178;-81
2023/06/12 10:40:12;;;;;;;2.00;1.55;;;34.60;35.80;33.60;96413.00;;;;6134328;23;20760;-81
2023/06/12 10:42:47;;;;;;;2.60;1.85;;;34.60;35.40;33.50;96414.00;;;;6149961;23;20167;-81
2023/06/12 10:45:23;;;;;;;1.80;1.70;;;34.40;36.00;33.40;96410.00;;;;6109950;23;20206;-81
2023/06/12 10:48:19;;;;;;;1.73;1.63;;;34.30;35.90;33.40;96415.00;;;;6102525;23;20205;-81
2023/06/12 10:50:49;;;;;;;2.17;1.98;;;34.20;35.70;33.30;96400.00;;;;6100948;23;20322;-81
2023/06/12 10:53:24;;;;;;;2.45;1.70;;;34.10;36.30;33.30;96401.00;;;;6126353;23;20195;-81
2023/06/12 10:56:01;;;;;;;1.83;1.73;;;34.00;35.90;33.20;96402.00;;;;6126854;23;20155;-81
2023/06/12 10:58:36;;;;;;;2.08;1.98;;;33.80;35.40;33.00;96392.00;;;;6102415;23;20319;-82
2023/06/12 11:01:09;;;;;;;2.70;1.80;;;33.70;35.20;32.80;96390.00;;;;6127018;23;20173;-81
2023/06/12 11:03:42;;;;;;;1.63;1.52;;;33.50;34.70;32.70;96387.00;;;;6127349;23;20198;-80